V F Pors Moguer — FHVT — position and weather

sailwx.info

Track history (hours):
 
Tides and Currents Weather Stations Pressure Air Temp Water Temp Dewpoint Dewpoint Depression Visibility Wind Speed Wind Dir Waves Ship Positions

V F Pors Moguer

Last reported at 2018-Feb-22 06:05 UTC. Time now 2018-Feb-25 22:10 UTC.
Position N 47°47' W 004°17'.

Length 24 m; draft 3.8 m.

Type: Fishing. MMSI: 228213000.

Date/timePositionNaut miles runAvg speedWind from/ knotsBaromVisibWave heightAir tempDewpointWater temp
2018-Feb-22 06:05N 47°47' W 004°17'1 9.0
2018-Feb-22 06:00N 47°47' W 004°18'4 8.2
2018-Feb-22 05:28N 47°44' W 004°24'1 1.4
2018-Feb-22 05:00N 47°45' W 004°23'1 2.9
2018-Feb-22 04:30N 47°45' W 004°25'2 3.1
2018-Feb-22 04:00N 47°47' W 004°26'2 3.3
2018-Feb-22 03:28N 47°48' W 004°28'2 3.5
2018-Feb-22 02:59N 47°49' W 004°29'2 3.7
2018-Feb-22 02:30N 47°51' W 004°31'2 3.8
2018-Feb-22 02:00N 47°52' W 004°33'2 3.8
2018-Feb-22 01:30N 47°53' W 004°35'2 3.9
2018-Feb-22 01:00N 47°55' W 004°37'2 4.0
2018-Feb-22 00:30N 47°56' W 004°40'2 4.2
2018-Feb-22 00:00N 47°57' W 004°42'2 3.6
2018-Feb-21 23:30N 47°58' W 004°44'1 2.3
2018-Feb-21 23:00N 47°59' W 004°45'1 2.9
2018-Feb-21 22:30N 48°00' W 004°46'1 1.3
2018-Feb-21 21:58N 48°01' W 004°46'2 5.5
2018-Feb-21 21:30N 48°04' W 004°46'3 6.1
2018-Feb-21 21:00N 48°06' W 004°43'2 4.9
2018-Feb-21 20:30N 48°06' W 004°40'3 5.2
2018-Feb-21 20:00N 48°07' W 004°36'3 5.0
2018-Feb-21 19:30N 48°07' W 004°32'2 4.9
2018-Feb-21 19:00N 48°07' W 004°28'2 5.0
2018-Feb-21 18:30N 48°08' W 004°25'3 5.1
2018-Feb-21 17:58N 48°07' W 004°21'1 2.8
2018-Feb-21 17:27N 48°06' W 004°19'0 0.1
2018-Feb-21 16:57N 48°06' W 004°19'0 0.0
2018-Feb-21 16:27N 48°06' W 004°19'0 0.2
2018-Feb-21 15:48N 48°06' W 004°20'0 0.0
2018-Feb-21 15:24N 48°06' W 004°20'0 0.0
2018-Feb-21 14:33N 48°06' W 004°20'0 0.0
2018-Feb-21 14:30N 48°06' W 004°20'0 0.0
2018-Feb-21 13:33N 48°06' W 004°20'0 0.0
2018-Feb-21 13:21N 48°06' W 004°20'0 0.0
2018-Feb-21 13:00N 48°06' W 004°20'0 0.1
2018-Feb-21 12:11N 48°06' W 004°20'0 0.0
2018-Feb-21 11:53N 48°06' W 004°20'0 0.0
2018-Feb-21 11:29N 48°06' W 004°20'0 0.0
2018-Feb-21 10:56N 48°06' W 004°20'0 0.0
2018-Feb-21 10:20N 48°06' W 004°20'0 0.0
2018-Feb-21 09:50N 48°06' W 004°20'0 0.0
2018-Feb-21 09:26N 48°06' W 004°20'0 0.0
2018-Feb-21 08:56N 48°06' W 004°20'0 0.0
2018-Feb-21 08:23N 48°06' W 004°20'0 0.0
2018-Feb-21 07:53N 48°06' W 004°20'0 0.0
2018-Feb-21 07:29N 48°06' W 004°20'0 0.0
2018-Feb-21 06:59N 48°06' W 004°20'0 0.0
2018-Feb-21 06:29N 48°06' W 004°20'0 0.0
2018-Feb-21 05:59N 48°06' W 004°20'0 0.0
2018-Feb-21 05:29N 48°06' W 004°20'0 0.0
2018-Feb-21 04:59N 48°06' W 004°20'0 0.0
2018-Feb-21 04:29N 48°06' W 004°20'0 0.0
2018-Feb-21 03:59N 48°06' W 004°20'0 0.0
2018-Feb-21 03:29N 48°06' W 004°20'0 0.0
2018-Feb-21 02:56N 48°06' W 004°20'0 0.0
2018-Feb-21 02:29N 48°06' W 004°20'0 0.0
2018-Feb-21 01:59N 48°06' W 004°20'0 0.0
2018-Feb-21 01:29N 48°06' W 004°20'0 0.0
2018-Feb-21 00:59N 48°06' W 004°20'1 2.3
2018-Feb-21 00:30N 48°07' W 004°21'2 3.3
2018-Feb-21 00:01N 48°07' W 004°23'3 6.5
2018-Feb-20 23:30N 48°07' W 004°28'3 6.3
2018-Feb-20 23:00N 48°07' W 004°33'3 6.2
2018-Feb-20 22:30N 48°08' W 004°37'3 6.1
2018-Feb-20 22:00N 48°09' W 004°41'3 6.5
2018-Feb-20 21:30N 48°10' W 004°46'3 6.7
2018-Feb-20 21:00N 48°12' W 004°50'3 6.7
2018-Feb-20 20:30N 48°14' W 004°54'3 6.8
2018-Feb-20 20:00N 48°16' W 004°58'3 6.9
2018-Feb-20 19:30N 48°18' W 005°02'3 6.5
2018-Feb-20 19:00N 48°20' W 005°06'3 5.9
2018-Feb-20 18:30N 48°22' W 005°09'3 5.2
2018-Feb-20 18:00N 48°24' W 005°12'2 4.3
2018-Feb-20 17:27N 48°26' W 005°13'2 4.1
2018-Feb-20 17:00N 48°28' W 005°14'3 5.1
2018-Feb-20 16:29N 48°30' W 005°16'3 5.7
2018-Feb-20 15:59N 48°33' W 005°17'3 6.0
2018-Feb-20 15:29N 48°36' W 005°17'3 6.1
2018-Feb-20 15:00N 48°39' W 005°18'3 6.3
2018-Feb-20 14:30N 48°42' W 005°20'178 6.8
2018-Feb-19 12:16N 51°21' W 007°26'87 6.6
2018-Feb-18 23:02N 50°24' W 005°42'0 3.6
2018-Feb-18 23:00N 50°24' W 005°41'2 3.6
2018-Feb-18 22:28N 50°24' W 005°38'1 1.9
2018-Feb-18 22:00N 50°24' W 005°37'4 8.5
2018-Feb-18 21:29N 50°23' W 005°44'0 0.0
2018-Feb-18 08:24N 50°23' W 005°44'2 2.6
2018-Feb-18 07:44N 50°23' W 005°41'1 2.7
2018-Feb-18 07:23N 50°24' W 005°40'1 2.4
2018-Feb-18 07:00N 50°24' W 005°41'2 3.4
2018-Feb-18 06:30N 50°23' W 005°44'2 3.4
2018-Feb-18 06:00N 50°23' W 005°46'3 3.6
2018-Feb-18 05:15N 50°22' W 005°51'3 3.4
2018-Feb-18 04:28N 50°22' W 005°55'  
Track history (hours):
 
Tides and Currents Weather Stations Pressure Air Temp Water Temp Dewpoint Dewpoint Depression Visibility Wind Speed Wind Dir Waves Ship Positions

V F Pors Moguer

Last reported at 2018-Feb-22 06:05 UTC. Time now 2018-Feb-25 22:10 UTC.
Position N 47°47' W 004°17'.

Length 24 m; draft 3.8 m.

Type: Fishing. MMSI: 228213000.

Date/timePositionNaut miles runAvg speedWind from/ knotsBaromVisibWave heightAir tempDewpointWater temp
2018-Feb-22 06:05N 47°47' W 004°17'1 9.0
2018-Feb-22 06:00N 47°47' W 004°18'4 8.2
2018-Feb-22 05:28N 47°44' W 004°24'1 1.4
2018-Feb-22 05:00N 47°45' W 004°23'1 2.9
2018-Feb-22 04:30N 47°45' W 004°25'2 3.1
2018-Feb-22 04:00N 47°47' W 004°26'2 3.3
2018-Feb-22 03:28N 47°48' W 004°28'2 3.5
2018-Feb-22 02:59N 47°49' W 004°29'2 3.7
2018-Feb-22 02:30N 47°51' W 004°31'2 3.8
2018-Feb-22 02:00N 47°52' W 004°33'2 3.8
2018-Feb-22 01:30N 47°53' W 004°35'2 3.9
2018-Feb-22 01:00N 47°55' W 004°37'2 4.0
2018-Feb-22 00:30N 47°56' W 004°40'2 4.2
2018-Feb-22 00:00N 47°57' W 004°42'2 3.6
2018-Feb-21 23:30N 47°58' W 004°44'1 2.3
2018-Feb-21 23:00N 47°59' W 004°45'1 2.9
2018-Feb-21 22:30N 48°00' W 004°46'1 1.3
2018-Feb-21 21:58N 48°01' W 004°46'2 5.5
2018-Feb-21 21:30N 48°04' W 004°46'3 6.1
2018-Feb-21 21:00N 48°06' W 004°43'2 4.9
2018-Feb-21 20:30N 48°06' W 004°40'3 5.2
2018-Feb-21 20:00N 48°07' W 004°36'3 5.0
2018-Feb-21 19:30N 48°07' W 004°32'2 4.9
2018-Feb-21 19:00N 48°07' W 004°28'2 5.0
2018-Feb-21 18:30N 48°08' W 004°25'3 5.1
2018-Feb-21 17:58N 48°07' W 004°21'1 2.8
2018-Feb-21 17:27N 48°06' W 004°19'0 0.1
2018-Feb-21 16:57N 48°06' W 004°19'0 0.0
2018-Feb-21 16:27N 48°06' W 004°19'0 0.2
2018-Feb-21 15:48N 48°06' W 004°20'0 0.0
2018-Feb-21 15:24N 48°06' W 004°20'0 0.0
2018-Feb-21 14:33N 48°06' W 004°20'0 0.0
2018-Feb-21 14:30N 48°06' W 004°20'0 0.0
2018-Feb-21 13:33N 48°06' W 004°20'0 0.0
2018-Feb-21 13:21N 48°06' W 004°20'0 0.0
2018-Feb-21 13:00N 48°06' W 004°20'0 0.1
2018-Feb-21 12:11N 48°06' W 004°20'0 0.0
2018-Feb-21 11:53N 48°06' W 004°20'0 0.0
2018-Feb-21 11:29N 48°06' W 004°20'0 0.0
2018-Feb-21 10:56N 48°06' W 004°20'0 0.0
2018-Feb-21 10:20N 48°06' W 004°20'0 0.0
2018-Feb-21 09:50N 48°06' W 004°20'0 0.0
2018-Feb-21 09:26N 48°06' W 004°20'0 0.0
2018-Feb-21 08:56N 48°06' W 004°20'0 0.0
2018-Feb-21 08:23N 48°06' W 004°20'0 0.0
2018-Feb-21 07:53N 48°06' W 004°20'0 0.0
2018-Feb-21 07:29N 48°06' W 004°20'0 0.0
2018-Feb-21 06:59N 48°06' W 004°20'0 0.0
2018-Feb-21 06:29N 48°06' W 004°20'0 0.0
2018-Feb-21 05:59N 48°06' W 004°20'0 0.0
2018-Feb-21 05:29N 48°06' W 004°20'0 0.0
2018-Feb-21 04:59N 48°06' W 004°20'0 0.0
2018-Feb-21 04:29N 48°06' W 004°20'0 0.0
2018-Feb-21 03:59N 48°06' W 004°20'0 0.0
2018-Feb-21 03:29N 48°06' W 004°20'0 0.0
2018-Feb-21 02:56N 48°06' W 004°20'0 0.0
2018-Feb-21 02:29N 48°06' W 004°20'0 0.0
2018-Feb-21 01:59N 48°06' W 004°20'0 0.0
2018-Feb-21 01:29N 48°06' W 004°20'0 0.0
2018-Feb-21 00:59N 48°06' W 004°20'1 2.3
2018-Feb-21 00:30N 48°07' W 004°21'2 3.3
2018-Feb-21 00:01N 48°07' W 004°23'3 6.5
2018-Feb-20 23:30N 48°07' W 004°28'3 6.3
2018-Feb-20 23:00N 48°07' W 004°33'3 6.2
2018-Feb-20 22:30N 48°08' W 004°37'3 6.1
2018-Feb-20 22:00N 48°09' W 004°41'3 6.5
2018-Feb-20 21:30N 48°10' W 004°46'3 6.7
2018-Feb-20 21:00N 48°12' W 004°50'3 6.7
2018-Feb-20 20:30N 48°14' W 004°54'3 6.8
2018-Feb-20 20:00N 48°16' W 004°58'3 6.9
2018-Feb-20 19:30N 48°18' W 005°02'3 6.5
2018-Feb-20 19:00N 48°20' W 005°06'3 5.9
2018-Feb-20 18:30N 48°22' W 005°09'3 5.2
2018-Feb-20 18:00N 48°24' W 005°12'2 4.3
2018-Feb-20 17:27N 48°26' W 005°13'2 4.1
2018-Feb-20 17:00N 48°28' W 005°14'3 5.1
2018-Feb-20 16:29N 48°30' W 005°16'3 5.7
2018-Feb-20 15:59N 48°33' W 005°17'3 6.0
2018-Feb-20 15:29N 48°36' W 005°17'3 6.1
2018-Feb-20 15:00N 48°39' W 005°18'3 6.3
2018-Feb-20 14:30N 48°42' W 005°20'178 6.8
2018-Feb-19 12:16N 51°21' W 007°26'87 6.6
2018-Feb-18 23:02N 50°24' W 005°42'0 3.6
2018-Feb-18 23:00N 50°24' W 005°41'2 3.6
2018-Feb-18 22:28N 50°24' W 005°38'1 1.9
2018-Feb-18 22:00N 50°24' W 005°37'4 8.5
2018-Feb-18 21:29N 50°23' W 005°44'0 0.0
2018-Feb-18 08:24N 50°23' W 005°44'2 2.6
2018-Feb-18 07:44N 50°23' W 005°41'1 2.7
2018-Feb-18 07:23N 50°24' W 005°40'1 2.4
2018-Feb-18 07:00N 50°24' W 005°41'2 3.4
2018-Feb-18 06:30N 50°23' W 005°44'2 3.4
2018-Feb-18 06:00N 50°23' W 005°46'3 3.6
2018-Feb-18 05:15N 50°22' W 005°51'3 3.4
2018-Feb-18 04:28N 50°22' W 005°55'  

Dump ship's entire track history